Time;durP1;ratioP1;P1;durP2;ratioP2;P2;SDS_P1;SDS_P2;PMS_P1;PMS_P2;Temp;Humidity;BMP_temperature;BMP_pressure;BME280_temperature;BME280_humidity;BME280_pressure;Samples;Min_cycle;Max_cycle;Signal;HPM_P1;HPM_P2
2024/04/14 00:01:06;;;;;;;0.00;0.00;;;21.20;72.00;;;21.55;54.77;100551.09;6583241;21;20349;-25
2024/04/14 00:03:32;;;;;;;0.10;0.10;;;21.20;72.10;;;21.51;55.44;100544.56;6607901;21;20292;-27
2024/04/14 00:05:59;;;;;;;0.10;0.10;;;21.20;72.30;;;21.47;54.78;100548.69;6604646;21;20351;-29
2024/04/14 00:08:25;;;;;;;0.00;0.00;;;21.10;72.30;;;21.43;55.51;100544.84;6593887;21;20285;-27
2024/04/14 00:10:51;;;;;;;0.10;0.10;;;21.00;72.50;;;21.40;55.65;100548.75;6476874;21;20231;-28
2024/04/14 00:13:17;;;;;;;0.10;0.10;;;21.00;73.00;;;21.38;55.40;100547.34;6603121;21;20263;-25
2024/04/14 00:15:43;;;;;;;0.00;0.00;;;21.00;72.90;;;21.33;55.39;100542.69;6608398;21;20309;-23
2024/04/14 00:18:09;;;;;;;0.00;0.00;;;20.90;73.30;;;21.29;56.22;100540.69;6604265;21;20263;-24
2024/04/14 00:20:35;;;;;;;0.00;0.00;;;20.90;73.10;;;21.24;56.06;100536.81;6593497;21;20299;-25
2024/04/14 00:23:01;;;;;;;0.07;0.07;;;20.80;73.10;;;21.22;55.98;100530.09;6609028;21;20257;-24
2024/04/14 00:25:26;;;;;;;0.00;0.00;;;20.80;73.40;;;21.17;56.27;100528.06;6603024;21;20429;-26
2024/04/14 00:27:52;;;;;;;0.00;0.00;;;20.70;73.10;;;21.15;55.81;100524.81;6609261;21;20255;-25
2024/04/14 00:30:18;;;;;;;0.10;0.10;;;20.70;73.40;;;21.12;55.91;100519.13;6553973;21;20258;-27
2024/04/14 00:32:44;;;;;;;0.00;0.00;;;20.70;73.60;;;21.07;56.26;100519.78;6596210;21;20338;-27
2024/04/14 00:35:10;;;;;;;0.10;0.10;;;20.70;73.80;;;21.05;56.18;100527.16;6599847;21;20291;-28
2024/04/14 00:37:36;;;;;;;0.07;0.07;;;20.60;73.80;;;21.01;55.92;100523.31;6585483;21;20253;-26
2024/04/14 00:40:03;;;;;;;0.10;0.10;;;20.50;73.80;;;20.97;56.29;100524.78;6625625;21;20714;-23
2024/04/14 00:42:29;;;;;;;0.00;0.00;;;20.50;74.00;;;20.92;56.59;100514.78;6609624;21;20293;-24
2024/04/14 00:44:55;;;;;;;0.10;0.10;;;20.50;74.10;;;20.89;56.39;100528.53;6590658;21;20279;-27
2024/04/14 00:47:21;;;;;;;0.10;0.10;;;20.40;74.20;;;20.87;56.70;100524.47;6610693;21;20603;-27
2024/04/14 00:49:48;;;;;;;0.00;0.00;;;20.40;74.40;;;20.83;56.65;100518.75;6588641;21;20270;-32
2024/04/14 00:52:15;;;;;;;0.00;0.00;;;20.40;74.40;;;20.80;56.74;100511.22;6533969;21;20297;-26
2024/04/14 00:54:42;;;;;;;0.10;0.10;;;20.30;74.50;;;20.78;56.81;100512.44;6570989;21;20305;-24
2024/04/14 00:57:08;;;;;;;0.10;0.10;;;20.30;74.80;;;20.75;57.09;100505.72;6590870;21;20846;-23
2024/04/14 00:59:35;;;;;;;0.10;0.10;;;20.30;74.80;;;20.71;56.93;100504.53;6523186;21;20773;-24
2024/04/14 01:02:01;;;;;;;0.00;0.00;;;20.20;74.70;;;20.69;56.98;100511.91;6560585;21;20367;-27
2024/04/14 01:04:30;;;;;;;0.10;0.10;;;20.20;74.70;;;20.65;57.27;100511.50;6590908;21;20254;-26
2024/04/14 01:07:46;;;;;;;;;;;;;;;;;;;;;
2024/04/14 01:10:23;;;;;;;0.10;0.10;;;20.10;75.30;;;20.59;57.88;100515.06;6561819;21;20346;-27
2024/04/14 01:12:49;;;;;;;0.00;0.00;;;20.10;76.00;;;20.55;58.09;100500.56;6545513;21;20355;-25
2024/04/14 01:15:15;;;;;;;0.00;0.00;;;20.00;76.20;;;20.55;58.44;100505.06;6537996;21;20286;-26
2024/04/14 01:17:43;;;;;;;0.10;0.10;;;20.00;76.30;;;20.52;59.07;100514.25;6584577;21;20288;-21
2024/04/14 01:20:11;;;;;;;0.20;0.20;;;19.90;76.60;;;20.51;59.62;100507.31;6608679;21;20300;-22
2024/04/14 01:22:37;;;;;;;0.10;0.10;;;20.00;77.50;;;20.50;59.51;100505.69;6596119;21;20305;-21
2024/04/14 01:25:11;;;;;;;0.10;0.10;;;19.90;77.90;;;20.50;59.10;100504.88;6606988;21;20250;-21
2024/04/14 01:27:40;;;;;;;0.10;0.10;;;19.90;77.30;;;20.45;59.04;100502.84;6612812;21;20300;-22
2024/04/14 01:30:07;;;;;;;0.07;0.07;;;19.90;77.00;;;20.43;59.13;100499.56;6608172;21;20262;-22
2024/04/14 01:32:34;;;;;;;0.00;0.00;;;19.90;77.50;;;20.39;58.82;100506.38;6597609;21;20314;-22
2024/04/14 01:35:04;;;;;;;0.10;0.10;;;19.80;76.90;;;20.35;58.36;100508.63;6612801;21;20295;-22
2024/04/14 01:37:30;;;;;;;0.10;0.10;;;19.80;76.90;;;20.33;59.14;100501.91;6608548;21;20262;-21
2024/04/14 01:39:55;;;;;;;0.10;0.10;;;19.70;77.30;;;20.29;58.96;100500.69;6611262;21;20338;-22
2024/04/14 01:42:23;;;;;;;0.10;0.10;;;19.70;77.30;;;20.27;58.71;100500.91;6608301;21;20257;-21
2024/04/14 01:44:48;;;;;;;0.10;0.10;;;19.70;77.30;;;20.24;58.94;100495.19;6549359;21;20274;-24
2024/04/14 01:47:14;;;;;;;0.00;0.00;;;19.60;77.50;;;20.22;58.81;100497.25;6613185;21;20980;-24
2024/04/14 01:49:40;;;;;;;0.10;0.10;;;19.60;77.20;;;20.19;58.92;100503.81;6608527;21;20766;-22
2024/04/14 01:52:06;;;;;;;0.10;0.10;;;19.60;77.50;;;20.16;58.76;100494.41;6615483;21;20567;-22
2024/04/14 01:54:32;;;;;;;0.10;0.10;;;19.50;77.40;;;20.13;58.51;100491.38;6613392;21;20824;-21
2024/04/14 01:56:58;;;;;;;0.10;0.10;;;19.50;77.30;;;20.10;58.82;100483.81;6601852;21;20276;-23
2024/04/14 01:59:24;;;;;;;0.10;0.10;;;19.50;77.60;;;20.07;58.89;100490.38;6641665;21;20300;-22
2024/04/14 02:01:50;;;;;;;0.10;0.10;;;19.50;77.60;;;20.05;58.80;100495.09;6608205;21;20249;-26
2024/04/14 02:04:15;;;;;;;0.00;0.00;;;19.40;77.70;;;20.02;58.76;100487.53;6612770;21;20331;-21
2024/04/14 02:06:41;;;;;;;0.10;0.10;;;19.40;77.50;;;20.00;58.79;100492.25;6597619;21;20366;-22
2024/04/14 02:09:07;;;;;;;0.10;0.10;;;19.40;77.70;;;19.97;59.33;100490.00;6607852;21;20296;-23
2024/04/14 02:11:33;;;;;;;0.10;0.10;;;19.30;78.80;;;19.97;59.17;100494.50;6613008;21;20300;-22
2024/04/14 02:13:59;;;;;;;0.10;0.10;;;19.30;77.90;;;19.92;58.81;100495.16;6607714;21;20333;-22
2024/04/14 02:16:25;;;;;;;0.10;0.10;;;19.30;77.90;;;19.88;59.18;100488.63;6597147;21;20370;-21
2024/04/14 02:18:51;;;;;;;0.10;0.10;;;19.20;78.00;;;19.88;59.24;100493.94;6613189;21;20264;-23
2024/04/14 02:21:17;;;;;;;0.10;0.10;;;19.20;78.60;;;19.84;59.58;100496.19;6605341;21;20292;-22
2024/04/14 02:23:43;;;;;;;0.00;0.00;;;19.20;78.30;;;19.82;59.31;100489.47;6611614;21;20254;-21
2024/04/14 02:26:09;;;;;;;0.10;0.10;;;19.20;78.60;;;19.78;59.49;100496.22;6605655;21;20307;-22
2024/04/14 02:28:35;;;;;;;0.10;0.10;;;19.10;78.50;;;19.75;59.39;100486.84;6597173;21;20261;-21
2024/04/14 02:31:01;;;;;;;0.10;0.10;;;19.10;78.70;;;19.74;60.12;100492.38;6612081;21;20333;-22
2024/04/14 02:33:27;;;;;;;0.10;0.10;;;19.10;79.20;;;19.72;60.06;100487.28;6607657;21;20321;-21
2024/04/14 02:35:59;;;;;;;0.10;0.10;;;19.00;79.20;;;19.70;60.43;100489.31;6611112;21;21191;-21
2024/04/14 02:38:26;;;;;;;0.10;0.10;;;19.10;79.40;;;19.68;60.25;100490.56;6565230;21;20260;-22
2024/04/14 02:40:56;;;;;;;0.10;0.10;;;19.00;79.50;;;19.67;59.89;100494.25;6593403;21;20315;-22
2024/04/14 02:43:23;;;;;;;0.10;0.10;;;19.00;79.10;;;19.62;60.37;100498.31;6611982;21;20293;-22
2024/04/14 02:45:48;;;;;;;0.10;0.10;;;19.00;79.30;;;19.61;60.00;100501.19;6605185;21;20300;-22
2024/04/14 02:48:15;;;;;;;0.00;0.00;;;19.00;79.00;;;19.59;59.81;100503.25;6611066;21;20253;-22
2024/04/14 02:50:41;;;;;;;0.10;0.10;;;18.90;78.90;;;19.56;59.71;100508.91;6616049;21;20869;-22
2024/04/14 02:53:10;;;;;;;0.10;0.10;;;18.90;78.90;;;19.53;60.02;100504.84;6592715;21;20299;-22
2024/04/14 02:55:36;;;;;;;0.10;0.10;;;18.90;79.20;;;19.50;59.93;100505.25;6611103;21;20269;-23
2024/04/14 02:58:04;;;;;;;0.10;0.10;;;18.80;79.10;;;19.49;59.78;100502.81;6607003;21;20297;-22
2024/04/14 03:00:30;;;;;;;0.10;0.10;;;18.80;79.20;;;19.45;59.98;100504.28;6595649;21;20300;-29
2024/04/14 03:02:56;;;;;;;0.10;0.10;;;18.80;79.40;;;19.43;60.10;100501.00;6612373;21;20261;-22
2024/04/14 03:05:23;;;;;;;0.10;0.10;;;18.70;79.50;;;19.39;60.20;100503.25;6605312;21;20264;-24
2024/04/14 03:07:52;;;;;;;0.10;0.10;;;18.70;79.70;;;19.37;60.25;100515.88;6611077;21;20296;-23
2024/04/14 03:10:19;;;;;;;0.20;0.20;;;18.70;79.80;;;19.35;60.40;100504.69;6606379;21;20265;-23
2024/04/14 03:12:45;;;;;;;0.10;0.10;;;18.60;80.60;;;19.32;60.62;100505.13;6550468;21;20720;-24
2024/04/14 03:15:12;;;;;;;0.10;0.10;;;18.60;80.00;;;19.30;60.44;100515.91;6609776;21;20272;-27
2024/04/14 03:17:39;;;;;;;0.10;0.10;;;18.60;80.10;;;19.27;60.59;100507.56;6606910;21;20260;-26
2024/04/14 03:20:06;;;;;;;0.10;0.10;;;18.60;80.30;;;19.25;60.55;100505.13;6567025;21;20384;-26
2024/04/14 03:22:33;;;;;;;0.10;0.10;;;18.50;80.20;;;19.22;60.45;100502.06;6606065;21;20775;-26
2024/04/14 03:25:00;;;;;;;0.10;0.10;;;18.50;80.30;;;19.19;60.80;100503.28;6584276;21;20272;-25
2024/04/14 03:27:26;;;;;;;0.10;0.10;;;18.50;80.30;;;19.18;60.81;100516.75;6567631;21;20708;-27
2024/04/14 03:29:52;;;;;;;0.10;0.10;;;18.50;80.50;;;19.16;60.91;100513.47;6605280;21;20316;-29
2024/04/14 03:32:18;;;;;;;0.10;0.10;;;18.40;80.60;;;19.13;61.04;100512.06;6562216;21;20291;-29
2024/04/14 03:34:44;;;;;;;0.10;0.10;;;18.40;80.70;;;19.12;61.08;100506.97;6621878;21;20228;-27
2024/04/14 03:37:12;;;;;;;0.10;0.10;;;18.40;80.80;;;19.08;60.90;100506.56;6547198;21;20276;-27
2024/04/14 03:39:38;;;;;;;0.20;0.20;;;18.30;80.80;;;19.06;61.14;100503.31;6588802;21;20255;-27
2024/04/14 03:42:04;;;;;;;0.10;0.10;;;18.30;80.90;;;19.04;61.01;100508.81;6621012;21;20724;-25
2024/04/14 03:44:31;;;;;;;0.10;0.10;;;18.30;81.00;;;19.01;61.13;100503.91;6551196;21;20511;-29
2024/04/14 03:46:56;;;;;;;0.10;0.10;;;18.30;81.10;;;18.99;61.07;100505.16;6613709;21;20291;-22
2024/04/14 03:49:22;;;;;;;0.10;0.10;;;18.20;81.10;;;18.97;61.46;100509.84;6605798;21;21023;-21
2024/04/14 03:51:48;;;;;;;0.20;0.20;;;18.30;81.30;;;18.96;61.33;100510.84;6611880;21;20257;-23
2024/04/14 03:54:15;;;;;;;0.10;0.10;;;18.20;81.30;;;18.94;61.20;100510.22;6605192;21;20256;-23
2024/04/14 03:56:40;;;;;;;0.10;0.10;;;18.20;81.40;;;18.91;61.40;100511.47;6595021;21;20360;-22
2024/04/14 03:59:06;;;;;;;0.10;0.10;;;18.20;81.40;;;18.90;61.35;100515.13;6610367;21;20267;-24
2024/04/14 04:01:32;;;;;;;0.10;0.10;;;18.20;81.40;;;18.87;61.73;100522.66;6602798;21;20261;-23
2024/04/14 04:03:59;;;;;;;0.10;0.10;;;18.10;81.50;;;18.85;61.86;100519.41;6613546;21;20940;-24
2024/04/14 04:06:25;;;;;;;0.10;0.10;;;18.10;81.80;;;18.84;62.44;100523.09;6607086;21;20899;-22
2024/04/14 04:08:50;;;;;;;0.10;0.10;;;18.10;82.40;;;18.81;62.34;100519.81;6595490;21;20272;-23
2024/04/14 04:11:16;;;;;;;0.10;0.10;;;18.10;82.10;;;18.78;61.83;100522.88;6611631;21;20307;-23
2024/04/14 04:13:42;;;;;;;0.10;0.10;;;18.10;81.90;;;18.77;61.97;100525.75;6606800;21;20247;-23
2024/04/14 04:16:08;;;;;;;0.10;0.10;;;18.10;81.80;;;18.74;61.90;100531.44;6610762;21;20273;-23
2024/04/14 04:18:35;;;;;;;0.10;0.10;;;18.00;81.80;;;18.72;62.34;100533.47;6612770;21;20268;-23
2024/04/14 04:21:07;;;;;;;0.20;0.20;;;18.00;82.30;;;18.73;61.96;100532.44;6598972;21;20310;-22
2024/04/14 04:23:33;;;;;;;0.10;0.10;;;18.00;81.90;;;18.70;62.06;100525.72;6549574;21;20275;-23
2024/04/14 04:26:00;;;;;;;0.10;0.10;;;18.00;82.00;;;18.69;61.46;100531.22;6638462;21;20268;-22
2024/04/14 04:28:27;;;;;;;0.10;0.10;;;18.00;81.90;;;18.67;62.03;100536.72;6601546;21;20361;-23
2024/04/14 04:30:54;;;;;;;0.10;0.10;;;17.90;81.90;;;18.65;61.68;100536.06;6612245;21;20253;-22
2024/04/14 04:33:20;;;;;;;0.20;0.20;;;17.90;82.10;;;18.62;62.29;100538.31;6607143;21;20706;-22
2024/04/14 04:35:58;;;;;;;0.10;0.10;;;17.90;82.30;;;18.60;61.65;100532.41;6612064;21;20294;-22
2024/04/14 04:38:25;;;;;;;0.10;0.10;;;17.90;82.30;;;18.57;61.99;100536.28;6607596;21;20350;-22
2024/04/14 04:40:52;;;;;;;0.10;0.10;;;17.80;82.50;;;18.54;62.38;100532.19;6593813;21;20958;-22
2024/04/14 04:43:20;;;;;;;0.20;0.20;;;17.80;82.60;;;18.51;62.38;100537.88;6611906;21;20259;-22
2024/04/14 04:45:45;;;;;;;0.10;0.10;;;17.80;82.60;;;18.50;62.50;100536.25;6606311;21;20252;-22
2024/04/14 04:48:14;;;;;;;0.10;0.10;;;17.70;82.70;;;18.49;62.66;100539.94;6610574;21;20784;-22
2024/04/14 04:50:43;;;;;;;0.10;0.10;;;17.80;83.20;;;18.48;62.93;100540.09;6613993;21;20259;-24
2024/04/14 04:53:10;;;;;;;0.20;0.20;;;17.70;83.10;;;18.44;62.75;100534.41;6592609;21;20264;-23
2024/04/14 04:55:36;;;;;;;0.10;0.10;;;17.70;83.00;;;18.44;62.56;100530.94;6610262;21;20274;-22
2024/04/14 04:58:02;;;;;;;0.10;0.10;;;17.70;82.90;;;18.42;63.02;100532.97;6605518;21;20260;-22
2024/04/14 05:00:27;;;;;;;0.10;0.10;;;17.70;83.20;;;18.40;62.70;100535.81;6598417;21;20252;-25
2024/04/14 05:02:53;;;;;;;0.10;0.10;;;17.70;83.20;;;18.37;63.48;100536.22;6613703;21;20297;-22
2024/04/14 05:05:20;;;;;;;0.20;0.20;;;17.70;83.60;;;18.36;63.18;100534.59;6608820;21;20358;-22
2024/04/14 05:07:46;;;;;;;0.10;0.10;;;17.70;83.40;;;18.34;62.90;100530.50;6613618;21;20270;-22
2024/04/14 05:10:12;;;;;;;0.20;0.20;;;17.70;83.30;;;18.33;62.58;100539.47;6610787;21;20401;-23
2024/04/14 05:12:37;;;;;;;0.20;0.20;;;17.60;83.30;;;18.30;62.65;100530.09;6599446;21;20352;-22
2024/04/14 05:15:04;;;;;;;0.10;0.10;;;17.60;83.40;;;18.28;62.92;100537.41;6615008;21;20694;-23
2024/04/14 05:17:31;;;;;;;0.10;0.10;;;17.60;83.50;;;18.27;63.06;100535.78;6610446;21;20257;-22
2024/04/14 05:19:57;;;;;;;0.13;0.13;;;17.60;83.60;;;18.24;63.35;100530.88;6615188;21;20403;-23
2024/04/14 05:22:23;;;;;;;0.10;0.10;;;17.50;83.60;;;18.22;63.04;100538.19;6612091;21;20992;-22
2024/04/14 05:24:48;;;;;;;0.10;0.10;;;17.50;83.70;;;18.20;62.82;100541.03;6598351;21;20263;-23
2024/04/14 05:27:15;;;;;;;0.10;0.10;;;17.50;83.80;;;18.18;62.88;100536.97;6615061;21;20263;-22
2024/04/14 05:29:45;;;;;;;0.10;0.10;;;17.40;83.90;;;18.17;63.28;100545.94;6610417;21;20309;-22
2024/04/14 05:32:18;;;;;;;0.17;0.17;;;17.40;84.00;;;18.13;63.60;100550.78;6615963;21;20377;-24
2024/04/14 05:34:44;;;;;;;0.10;0.10;;;17.40;84.10;;;18.12;63.17;100549.16;6613994;21;20284;-22
2024/04/14 05:37:10;;;;;;;0.10;0.10;;;17.40;84.30;;;18.10;63.43;100548.56;6597456;21;20264;-22
2024/04/14 05:39:37;;;;;;;0.10;0.10;;;17.40;84.30;;;18.09;63.22;100546.94;6615196;21;20258;-22
2024/04/14 05:42:03;;;;;;;0.17;0.17;;;17.30;84.30;;;18.08;63.67;100547.09;6611469;21;20282;-22
2024/04/14 05:44:33;;;;;;;0.10;0.10;;;17.30;84.50;;;18.06;63.79;100543.84;6601237;21;20595;-23
2024/04/14 05:46:59;;;;;;;0.10;0.10;;;17.30;84.60;;;18.04;63.23;100548.53;6615747;21;20295;-22
2024/04/14 05:49:26;;;;;;;0.10;0.10;;;17.30;84.80;;;18.03;63.44;100549.56;6610775;21;20380;-23
2024/04/14 05:51:52;;;;;;;0.10;0.10;;;17.30;84.90;;;18.01;63.98;100550.53;6615174;21;20318;-22
2024/04/14 05:54:18;;;;;;;0.10;0.10;;;17.20;85.00;;;18.00;63.76;100550.75;6610475;21;20298;-23
2024/04/14 05:56:43;;;;;;;0.10;0.10;;;17.20;85.20;;;17.99;63.57;100552.56;6600579;21;20309;-23
2024/04/14 05:59:09;;;;;;;0.13;0.13;;;17.20;85.20;;;17.98;64.39;100545.66;6614514;21;20619;-25
2024/04/14 06:01:35;;;;;;;0.10;0.10;;;17.20;85.40;;;17.97;64.03;100541.38;6609125;21;20694;-22
2024/04/14 06:04:01;;;;;;;0.10;0.10;;;17.20;85.50;;;17.97;63.96;100548.50;6615410;21;20356;-21
2024/04/14 06:06:27;;;;;;;0.10;0.10;;;17.20;85.70;;;17.96;64.69;100550.34;6612556;21;20301;-22
2024/04/14 06:08:54;;;;;;;0.13;0.13;;;17.20;85.80;;;17.95;64.61;100554.00;6597381;21;20399;-23
2024/04/14 06:11:20;;;;;;;0.10;0.10;;;17.20;86.00;;;17.95;64.50;100554.00;6613812;21;20305;-22
2024/04/14 06:13:46;;;;;;;0.10;0.10;;;17.20;86.10;;;17.95;64.77;100554.00;6610314;21;20306;-23
2024/04/14 06:16:14;;;;;;;0.10;0.10;;;17.20;86.20;;;17.94;64.51;100552.34;6614553;21;20687;-23
2024/04/14 06:18:39;;;;;;;0.10;0.10;;;17.20;86.30;;;17.94;64.40;100552.34;6617618;21;20305;-22
2024/04/14 06:21:05;;;;;;;0.20;0.20;;;17.20;86.40;;;17.94;64.87;100549.69;6596849;21;20621;-34
2024/04/14 06:23:31;;;;;;;0.10;0.10;;;17.20;86.50;;;17.96;65.23;100550.34;6614979;21;20258;-23
2024/04/14 06:25:57;;;;;;;0.13;0.13;;;17.20;86.60;;;17.95;64.84;100559.28;6609670;21;20721;-22
2024/04/14 06:28:23;;;;;;;0.10;0.10;;;17.20;86.90;;;17.97;65.21;100559.09;6599325;21;20301;-23
2024/04/14 06:30:49;;;;;;;0.20;0.20;;;17.20;86.80;;;17.97;64.99;100562.56;6614071;21;20396;-24
2024/04/14 06:33:19;;;;;;;0.10;0.10;;;17.20;86.90;;;17.99;65.45;100552.56;6610416;21;20258;-22
2024/04/14 06:35:45;;;;;;;0.10;0.10;;;17.20;86.90;;;17.99;64.90;100544.63;6614123;21;20254;-23
2024/04/14 06:38:11;;;;;;;0.10;0.10;;;17.20;87.10;;;18.00;65.29;100556.84;6609823;21;20319;-22
2024/04/14 06:40:36;;;;;;;0.10;0.10;;;17.20;87.20;;;18.03;64.99;100552.19;6600634;21;20259;-22
2024/04/14 06:43:03;;;;;;;0.10;0.10;;;17.20;87.30;;;18.04;65.52;100549.34;6615493;21;20246;-24
2024/04/14 06:45:28;;;;;;;0.10;0.10;;;17.30;86.90;;;18.05;64.93;100553.63;6609015;21;20701;-22
2024/04/14 06:47:54;;;;;;;0.10;0.10;;;17.20;87.40;;;18.08;65.00;100557.69;6614062;21;20258;-23
2024/04/14 06:50:20;;;;;;;0.20;0.20;;;17.30;87.50;;;18.09;65.31;100557.53;6610379;21;20804;-22
2024/04/14 06:52:46;;;;;;;0.10;0.10;;;17.30;87.50;;;18.12;64.75;100561.59;6598737;21;20263;-25
2024/04/14 06:55:15;;;;;;;0.10;0.10;;;17.30;87.40;;;18.14;64.95;100557.72;6615123;21;20696;-22
2024/04/14 06:57:42;;;;;;;0.10;0.10;;;17.30;87.50;;;18.17;64.61;100557.34;6609228;21;20398;-22
2024/04/14 07:00:10;;;;;;;0.10;0.10;;;17.40;87.50;;;18.20;65.14;100556.13;6613923;21;20258;-22
2024/04/14 07:02:36;;;;;;;0.20;0.20;;;17.40;87.60;;;18.23;64.82;100553.91;6597741;21;20305;-24
2024/04/14 07:05:02;;;;;;;0.20;0.20;;;17.40;87.50;;;18.26;65.07;100552.69;6609244;21;20262;-23
2024/04/14 07:07:30;;;;;;;0.10;0.10;;;17.40;87.60;;;18.29;64.92;100552.31;6614439;21;20655;-23
2024/04/14 07:09:56;;;;;;;0.10;0.10;;;17.40;87.70;;;18.33;64.80;100552.69;6609751;21;20360;-23
2024/04/14 07:12:22;;;;;;;0.10;0.10;;;17.50;88.70;;;18.35;64.87;100546.19;6597090;21;20271;-24
2024/04/14 07:14:48;;;;;;;0.10;0.10;;;17.50;88.10;;;18.40;64.98;100548.25;6614081;21;20214;-24
2024/04/14 07:17:13;;;;;;;0.10;0.10;;;17.50;88.30;;;18.44;65.81;100552.13;6609343;21;20291;-22
2024/04/14 07:19:42;;;;;;;0.10;0.10;;;17.60;89.00;;;18.50;66.54;100549.50;6614694;21;20867;-22
2024/04/14 07:22:08;;;;;;;0.10;0.10;;;17.60;89.50;;;18.53;67.32;100549.09;6606128;21;20364;-25
2024/04/14 07:24:34;;;;;;;0.10;0.10;;;17.60;89.80;;;18.60;67.75;100550.94;6599420;21;20419;-23
2024/04/14 07:27:00;;;;;;;0.10;0.10;;;17.70;90.50;;;18.65;68.23;100545.88;6614435;21;20365;-21
2024/04/14 07:29:25;;;;;;;0.10;0.10;;;17.80;90.30;;;18.72;68.44;100552.03;6607956;21;20388;-22
2024/04/14 07:31:51;;;;;;;0.10;0.10;;;17.80;90.50;;;18.78;68.75;100553.88;6611443;21;20260;-23
2024/04/14 07:34:17;;;;;;;0.10;0.10;;;17.90;90.70;;;18.86;68.48;100556.31;6609016;21;20259;-23
2024/04/14 07:36:43;;;;;;;0.10;0.10;;;18.00;90.80;;;18.95;69.05;100557.72;6598696;21;20754;-22
2024/04/14 07:39:09;;;;;;;0.10;0.10;;;18.10;91.00;;;19.02;68.65;100558.56;6613969;21;20252;-24
2024/04/14 07:41:35;;;;;;;0.10;0.10;;;18.10;91.00;;;19.14;69.45;100565.91;6608515;21;20691;-22
2024/04/14 07:44:01;;;;;;;0.10;0.10;;;18.20;91.30;;;19.21;68.86;100558.75;6613848;21;20282;-22
2024/04/14 07:46:27;;;;;;;0.10;0.10;;;18.30;91.30;;;19.30;69.35;100553.03;6612324;21;20276;-23
2024/04/14 07:48:54;;;;;;;0.10;0.10;;;18.40;91.50;;;19.40;69.16;100554.47;6596167;21;20311;-23
2024/04/14 07:51:19;;;;;;;0.10;0.10;;;18.50;91.60;;;19.50;69.24;100542.41;6613222;21;20324;-22
2024/04/14 07:53:47;;;;;;;0.10;0.10;;;18.60;91.70;;;19.61;69.37;100551.59;6609653;21;20265;-24
2024/04/14 07:56:13;;;;;;;0.10;0.10;;;18.70;91.90;;;19.71;69.85;100556.47;6613522;21;20343;-23
2024/04/14 07:58:41;;;;;;;0.10;0.10;;;18.80;91.90;;;19.85;70.43;100550.13;6617372;21;20353;-22
2024/04/14 08:01:07;;;;;;;0.20;0.20;;;18.90;92.10;;;19.98;69.70;100546.59;6594243;21;20296;-21
2024/04/14 08:03:33;;;;;;;0.10;0.10;;;19.00;92.50;;;20.09;69.55;100546.75;6613340;21;20253;-23
2024/04/14 08:05:59;;;;;;;0.10;0.10;;;19.10;92.50;;;20.24;71.03;100545.66;6607578;21;20273;-25
2024/04/14 08:08:25;;;;;;;0.07;0.07;;;19.20;92.90;;;20.38;70.40;100537.41;6598999;21;20337;-21
2024/04/14 08:10:51;;;;;;;0.00;0.00;;;19.40;93.10;;;20.51;69.56;100530.41;6612855;21;20224;-24
2024/04/14 08:13:17;;;;;;;0.10;0.10;;;19.50;93.00;;;20.63;69.57;100534.84;6608149;21;20880;-23
2024/04/14 08:15:42;;;;;;;0.00;0.00;;;19.60;93.10;;;20.79;70.08;100532.69;6612909;21;20724;-22
2024/04/14 08:18:08;;;;;;;0.10;0.10;;;19.80;93.20;;;20.93;69.35;100531.53;6607133;21;20388;-22
2024/04/14 08:20:34;;;;;;;0.03;0.03;;;19.90;93.30;;;21.05;68.71;100529.00;6598180;21;20611;-22
2024/04/14 08:23:00;;;;;;;0.00;0.00;;;20.00;93.00;;;21.21;69.24;100531.94;6614131;21;20258;-22
2024/04/14 08:25:26;;;;;;;0.10;0.10;;;20.20;93.20;;;21.34;68.74;100532.84;6575432;21;20325;-22
2024/04/14 08:27:52;;;;;;;0.10;0.10;;;20.30;93.20;;;21.44;68.12;100534.00;6614332;21;20325;-22
2024/04/14 08:30:18;;;;;;;0.10;0.10;;;20.40;92.90;;;21.58;68.83;100532.00;6607653;21;20262;-25
2024/04/14 08:32:44;;;;;;;0.00;0.00;;;20.50;92.90;;;21.69;67.19;100531.28;6599775;21;20270;-22
2024/04/14 08:35:10;;;;;;;0.03;0.03;;;20.70;92.70;;;21.84;67.76;100535.41;6612955;21;20331;-21
2024/04/14 08:37:36;;;;;;;0.07;0.07;;;20.80;92.80;;;21.98;67.78;100531.56;6608825;21;20262;-22
2024/04/14 08:40:02;;;;;;;0.00;0.00;;;20.90;92.90;;;22.12;66.72;100529.56;6613332;21;20330;-29
2024/04/14 08:42:30;;;;;;;0.10;0.10;;;21.10;92.80;;;22.24;66.51;100527.78;6611776;21;20291;-22
2024/04/14 08:44:57;;;;;;;0.00;0.00;;;21.20;92.70;;;22.37;66.56;100524.91;6592784;21;20299;-22
2024/04/14 08:47:24;;;;;;;0.00;0.00;;;21.30;92.60;;;22.49;66.46;100524.94;6614009;21;20290;-23
2024/04/14 08:49:50;;;;;;;0.07;0.07;;;21.50;92.50;;;22.63;66.90;100520.25;6608249;21;20296;-22
2024/04/14 08:52:20;;;;;;;0.10;0.10;;;21.60;92.70;;;22.75;65.98;100521.88;6569946;21;20291;-22
2024/04/14 08:54:46;;;;;;;0.00;0.00;;;21.80;92.50;;;22.91;66.40;100519.63;6571327;21;20243;-23
2024/04/14 08:57:13;;;;;;;0.00;0.00;;;21.80;92.60;;;23.05;66.75;100523.69;6591949;21;20266;-22
2024/04/14 08:59:41;;;;;;;0.00;0.00;;;22.00;92.90;;;23.19;66.08;100514.41;6569069;21;20756;-23
2024/04/14 09:02:10;;;;;;;0.00;0.00;;;22.10;92.60;;;23.32;65.11;100514.19;6641546;21;20780;-23
2024/04/14 09:04:37;;;;;;;0.00;0.00;;;22.30;92.40;;;23.48;65.98;100511.84;6600149;21;20296;-24
2024/04/14 09:07:12;;;;;;;0.00;0.00;;;22.40;92.50;;;23.63;65.97;100506.84;6567956;21;20258;-29
2024/04/14 09:11:23;;;;;;;;;;;;;;;;;;;;;
2024/04/14 09:18:44;;;;;;;0.00;0.00;;;23.10;91.90;;;24.31;64.77;100491.84;6567617;21;20700;-25
2024/04/14 09:21:11;;;;;;;0.10;0.10;;;23.30;92.00;;;24.45;63.80;100490.50;6611049;21;20774;-25
2024/04/14 09:23:44;;;;;;;0.10;0.10;;;23.40;92.00;;;24.60;63.57;100484.63;6566845;21;20294;-24
2024/04/14 09:26:14;;;;;;;0.00;0.00;;;23.60;91.60;;;24.76;63.29;100484.63;6643398;21;20251;-26
2024/04/14 09:28:48;;;;;;;0.10;0.10;;;23.70;91.60;;;24.89;62.23;100485.34;6599057;21;20248;-28
2024/04/14 09:31:16;;;;;;;0.10;0.10;;;23.90;91.20;;;25.06;63.16;100483.47;6613578;21;20317;-25
2024/04/14 09:33:45;;;;;;;0.00;0.00;;;24.10;91.10;;;25.22;62.27;100482.66;6611148;21;20269;-31
2024/04/14 09:36:26;;;;;;;0.00;0.00;;;24.20;90.80;;;25.33;59.83;100483.59;6615668;21;20303;-26
2024/04/14 09:38:53;;;;;;;0.10;0.10;;;24.40;90.00;;;25.50;61.09;100481.69;6549601;21;20664;-27
2024/04/14 09:41:30;;;;;;;0.00;0.00;;;24.60;90.30;;;25.67;60.97;100478.13;6605484;21;20235;-25
2024/04/14 09:44:02;;;;;;;0.03;0.03;;;24.70;90.50;;;25.80;60.97;100483.13;6630791;21;20695;-31
2024/04/14 09:46:34;;;;;;;0.10;0.10;;;24.80;90.30;;;25.93;60.61;100476.56;6613583;21;20264;-24
2024/04/14 09:49:01;;;;;;;0.00;0.00;;;25.00;90.20;;;26.05;59.15;100475.38;6591540;21;20359;-81
2024/04/14 09:51:59;;;;;;;0.00;0.00;;;25.10;89.10;;;26.20;59.76;100471.22;6522725;21;20338;-80
2024/04/14 09:54:31;;;;;;;0.10;0.10;;;25.30;89.60;;;26.39;58.75;100475.16;6518836;21;20356;-81
2024/04/14 09:57:21;;;;;;;0.10;0.10;;;25.50;88.40;;;26.53;58.91;100470.19;6551189;21;20274;-81
2024/04/14 09:59:47;;;;;;;0.10;0.10;;;25.60;88.70;;;26.65;58.39;100474.34;6563115;21;20332;-81
2024/04/14 10:02:46;;;;;;;0.00;0.00;;;25.70;88.20;;;26.79;57.95;100471.22;6555640;21;20310;-81
2024/04/14 10:05:16;;;;;;;0.10;0.10;;;25.80;88.00;;;26.95;57.54;100470.22;6578750;21;20350;-81
2024/04/14 10:07:43;;;;;;;0.00;0.00;;;26.00;87.70;;;27.09;57.28;100459.88;6563819;21;20263;-81
2024/04/14 10:10:11;;;;;;;0.00;0.00;;;26.20;87.10;;;27.23;55.81;100465.59;6556691;21;20279;-81
2024/04/14 10:12:37;;;;;;;0.00;0.00;;;26.30;85.90;;;27.36;56.63;100455.19;6538978;21;20295;-81
2024/04/14 10:15:07;;;;;;;0.00;0.00;;;26.40;86.10;;;27.52;56.63;100447.19;6509872;21;20221;-82
2024/04/14 10:17:43;;;;;;;0.00;0.00;;;26.60;86.20;;;27.66;54.84;100451.81;6554928;21;20332;-81
2024/04/14 10:20:47;;;;;;;0.00;0.00;;;26.70;85.10;;;27.83;55.44;100435.47;6514699;21;20296;-82
2024/04/14 10:23:25;;;;;;;0.10;0.10;;;27.00;84.90;;;28.00;55.89;100440.63;6578325;21;20231;-82